createdAt,value
2024-03-16T00:00:37.008Z,3.25
2024-03-16T00:03:05.727Z,2.83
2024-03-16T00:05:34.221Z,3.35
2024-03-16T00:08:02.643Z,3.28
2024-03-16T00:10:31.154Z,3.60
2024-03-16T00:12:59.675Z,2.95
2024-03-16T00:15:28.536Z,3.55
2024-03-16T00:17:57.205Z,3.67
2024-03-16T00:20:27.071Z,3.20
2024-03-16T00:22:55.518Z,3.35
2024-03-16T00:25:23.960Z,2.67
2024-03-16T00:27:53.917Z,3.85
2024-03-16T00:30:24.432Z,3.17
2024-03-16T00:32:55.719Z,3.25
2024-03-16T00:35:25.824Z,2.80
2024-03-16T00:37:55.372Z,3.30
2024-03-16T00:40:23.807Z,3.47
2024-03-16T00:42:52.258Z,3.38
2024-03-16T00:45:20.784Z,3.58
2024-03-16T00:47:49.463Z,3.50
2024-03-16T00:50:18.138Z,3.50
2024-03-16T00:52:46.528Z,3.00
2024-03-16T00:55:15.049Z,3.20
2024-03-16T00:57:43.659Z,2.80
2024-03-16T01:00:12.557Z,2.85
2024-03-16T01:02:41.105Z,3.30
2024-03-16T01:05:09.693Z,2.90
2024-03-16T01:07:38.154Z,2.80
2024-03-16T01:10:07.053Z,2.97
2024-03-16T01:12:35.988Z,2.53
2024-03-16T01:15:04.664Z,2.78
2024-03-16T01:17:33.156Z,2.88
2024-03-16T01:20:01.698Z,3.38
2024-03-16T01:22:30.145Z,2.60
2024-03-16T01:24:58.864Z,2.70
2024-03-16T01:27:27.383Z,2.80
2024-03-16T01:29:55.886Z,2.80
2024-03-16T01:32:24.367Z,2.53
2024-03-16T01:34:52.844Z,2.70
2024-03-16T01:37:21.379Z,2.50
2024-03-16T01:39:51.199Z,2.25
2024-03-16T01:42:19.781Z,2.40
2024-03-16T01:44:53.354Z,2.70
2024-03-16T01:47:21.777Z,2.88
2024-03-16T01:49:50.255Z,3.55
2024-03-16T01:52:18.684Z,2.60
2024-03-16T01:54:46.861Z,2.88
2024-03-16T01:57:15.177Z,2.63
2024-03-16T01:59:43.950Z,2.85
2024-03-16T02:02:17.753Z,2.53
2024-03-16T02:04:47.613Z,3.08
2024-03-16T02:07:15.873Z,3.33
2024-03-16T02:09:44.074Z,2.58
2024-03-16T02:12:13.837Z,3.08
2024-03-16T02:14:42.369Z,3.38
2024-03-16T02:17:12.216Z,3.08
2024-03-16T02:19:40.652Z,3.55
2024-03-16T02:22:10.189Z,2.60
2024-03-16T02:24:38.705Z,2.92
2024-03-16T02:27:07.376Z,2.63
2024-03-16T02:29:37.862Z,3.15
2024-03-16T02:32:07.642Z,3.55
2024-03-16T02:34:37.172Z,4.38
2024-03-16T02:37:05.718Z,3.08
2024-03-16T02:39:34.316Z,3.35
2024-03-16T02:42:03.627Z,4.30
2024-03-16T02:44:32.162Z,4.20
2024-03-16T02:47:00.627Z,4.68
2024-03-16T02:49:29.234Z,4.00
2024-03-16T02:51:57.871Z,2.88
2024-03-16T02:54:26.326Z,4.90
2024-03-16T02:56:55.580Z,4.10
2024-03-16T02:59:24.073Z,3.60
2024-03-16T03:01:52.309Z,4.20
2024-03-16T03:04:20.492Z,4.85
2024-03-16T03:06:48.718Z,6.20
2024-03-16T03:09:19.133Z,5.20
2024-03-16T03:11:47.326Z,5.22
2024-03-16T03:14:18.203Z,4.75
2024-03-16T03:16:46.622Z,3.45
2024-03-16T03:19:15.053Z,3.25
2024-03-16T03:21:43.528Z,4.63
2024-03-16T03:24:12.126Z,6.18
2024-03-16T03:26:40.583Z,4.53
2024-03-16T03:29:09.080Z,5.03
2024-03-16T03:31:37.518Z,7.18
2024-03-16T03:34:06.556Z,5.65
2024-03-16T03:36:35.383Z,4.72
2024-03-16T03:39:04.197Z,5.30
2024-03-16T03:41:32.627Z,5.65
2024-03-16T03:44:03.741Z,3.75
2024-03-16T03:46:41.120Z,5.50
2024-03-16T03:49:27.432Z,5.85
2024-03-16T03:51:56.294Z,4.32
2024-03-16T03:54:24.881Z,3.60
2024-03-16T03:56:53.457Z,3.90
2024-03-16T03:59:23.278Z,3.78
2024-03-16T04:01:51.544Z,3.35
2024-03-16T04:04:20.037Z,2.45
2024-03-16T04:06:48.635Z,3.00
2024-03-16T04:09:16.937Z,2.75
2024-03-16T04:11:45.157Z,2.10
2024-03-16T04:14:13.380Z,2.72
2024-03-16T04:16:41.569Z,2.90
2024-03-16T04:19:09.864Z,2.33
2024-03-16T04:21:38.478Z,2.25
2024-03-16T04:24:06.951Z,1.90
2024-03-16T04:26:35.209Z,2.38
2024-03-16T04:29:03.895Z,2.70
2024-03-16T04:31:33.235Z,3.97
2024-03-16T04:34:01.501Z,4.05
2024-03-16T04:36:29.735Z,5.13
2024-03-16T04:38:58.187Z,4.70
2024-03-16T04:41:26.630Z,3.40
2024-03-16T04:43:54.815Z,3.92
2024-03-16T04:46:23.003Z,5.35
2024-03-16T04:48:51.197Z,3.42
2024-03-16T04:51:19.571Z,4.55
2024-03-16T04:53:48.009Z,4.68
2024-03-16T04:56:16.381Z,4.63
2024-03-16T04:58:44.840Z,4.40
2024-03-16T05:01:14.674Z,4.43
2024-03-16T05:03:43.372Z,5.03
2024-03-16T05:06:11.547Z,4.63
2024-03-16T05:08:39.714Z,4.47
2024-03-16T05:11:08.013Z,4.97
2024-03-16T05:13:36.224Z,4.43
2024-03-16T05:16:08.507Z,5.25
2024-03-16T05:18:36.943Z,3.78
2024-03-16T05:21:05.936Z,3.47
2024-03-16T05:23:34.114Z,4.88
2024-03-16T05:26:02.429Z,4.00
2024-03-16T05:28:30.601Z,3.13
2024-03-16T05:30:58.854Z,4.30
2024-03-16T05:33:27.201Z,5.05
2024-03-16T05:35:55.458Z,4.32
2024-03-16T05:38:25.000Z,5.07
2024-03-16T05:40:53.201Z,4.88
2024-03-16T05:43:21.449Z,3.28
2024-03-16T05:45:52.161Z,4.47
2024-03-16T05:48:20.422Z,3.95
2024-03-16T05:50:50.900Z,3.65
2024-03-16T05:53:19.181Z,4.00
2024-03-16T05:55:47.433Z,3.20
2024-03-16T05:58:14.915Z,3.38
2024-03-16T06:00:43.149Z,3.90
2024-03-16T06:03:11.341Z,4.03
2024-03-16T06:05:39.790Z,3.15
2024-03-16T06:08:08.942Z,3.03
2024-03-16T06:10:37.143Z,3.20
2024-03-16T06:13:05.641Z,2.92
2024-03-16T06:15:34.097Z,2.03
2024-03-16T06:18:02.318Z,2.00
2024-03-16T06:20:30.610Z,2.83
2024-03-16T06:22:58.836Z,2.35
2024-03-16T06:25:30.345Z,1.98
2024-03-16T06:28:07.592Z,2.78
2024-03-16T06:30:37.054Z,1.50
2024-03-16T06:33:10.312Z,1.90
2024-03-16T06:35:38.991Z,1.80
2024-03-16T06:38:09.410Z,1.98
2024-03-16T06:40:37.830Z,1.65
2024-03-16T06:43:06.347Z,1.92
2024-03-16T06:45:34.591Z,2.03
2024-03-16T06:48:03.001Z,1.73
2024-03-16T06:50:33.152Z,2.08
2024-03-16T06:53:01.506Z,2.05
2024-03-16T06:55:29.756Z,2.67
2024-03-16T06:57:57.981Z,2.17
2024-03-16T07:00:26.203Z,1.50
2024-03-16T07:02:54.417Z,1.50
2024-03-16T07:05:22.579Z,1.85
2024-03-16T07:07:50.801Z,2.22
2024-03-16T07:10:19.043Z,1.77
2024-03-16T07:12:49.472Z,1.55
2024-03-16T07:15:17.777Z,1.73
2024-03-16T07:17:45.978Z,1.73
2024-03-16T07:20:15.834Z,1.50
2024-03-16T07:22:44.212Z,1.45
2024-03-16T07:25:12.522Z,1.80
2024-03-16T07:27:40.880Z,1.52
2024-03-16T07:30:09.491Z,1.67
2024-03-16T07:32:38.102Z,1.52
2024-03-16T07:35:07.814Z,1.33
2024-03-16T07:37:36.177Z,0.98
2024-03-16T07:40:07.362Z,1.08
2024-03-16T07:42:35.805Z,1.15
2024-03-16T07:45:04.412Z,1.27
2024-03-16T07:47:32.711Z,0.88
2024-03-16T07:50:00.901Z,0.82
2024-03-16T07:52:29.206Z,0.93
2024-03-16T07:54:57.478Z,1.00
2024-03-16T07:57:25.831Z,0.93
2024-03-16T07:59:54.006Z,1.17
2024-03-16T08:02:24.433Z,1.00
2024-03-16T08:04:52.661Z,0.80
2024-03-16T08:07:20.869Z,1.02
2024-03-16T08:09:52.096Z,0.90
2024-03-16T08:12:20.388Z,1.00
2024-03-16T08:14:48.591Z,1.10
2024-03-16T08:17:17.109Z,1.20
2024-03-16T08:19:45.557Z,1.20
2024-03-16T08:22:14.387Z,0.95
2024-03-16T08:24:42.985Z,0.93
2024-03-16T08:27:11.491Z,1.00
2024-03-16T08:29:39.916Z,1.40
2024-03-16T08:32:10.468Z,0.90
2024-03-16T08:34:38.927Z,1.25
2024-03-16T08:37:07.566Z,1.13
2024-03-16T08:39:36.129Z,0.85
2024-03-16T08:42:05.678Z,1.08
2024-03-16T08:44:36.111Z,0.93
2024-03-16T08:47:04.616Z,1.10
2024-03-16T08:49:32.835Z,0.98
2024-03-16T08:52:02.077Z,1.05
2024-03-16T08:54:31.276Z,1.05
2024-03-16T08:56:59.544Z,1.48
2024-03-16T08:59:27.775Z,1.00
2024-03-16T09:01:56.065Z,0.93
2024-03-16T09:04:23.410Z,1.77
2024-03-16T09:06:51.669Z,1.08
2024-03-16T09:09:20.559Z,1.15
2024-03-16T09:11:48.823Z,1.30
2024-03-16T09:14:17.070Z,1.17
2024-03-16T09:16:45.250Z,1.00
2024-03-16T09:19:13.564Z,1.08
2024-03-16T09:21:41.881Z,0.82
2024-03-16T09:24:10.116Z,1.05
2024-03-16T09:26:38.312Z,1.20
2024-03-16T09:29:06.500Z,1.17
2024-03-16T09:31:34.773Z,1.52
2024-03-16T09:34:04.896Z,1.67
2024-03-16T09:36:33.180Z,1.10
2024-03-16T09:39:01.542Z,1.10
2024-03-16T09:41:30.346Z,1.20
